Time;durP1;ratioP1;P1;durP2;ratioP2;P2;SDS_P1;SDS_P2;PMS_P1;PMS_P2;Temp;Humidity;BMP_temperature;BMP_pressure;BME280_temperature;BME280_humidity;BME280_pressure;Samples;Min_cycle;Max_cycle;Signal;HPM_P1;HPM_P2
2023/10/08 00:00:55;;;;;;;;;;;;;;;21.36;39.35;100325.31;5130310;27;19950;-65
2023/10/08 00:03:29;;;;;;;;;;;;;;;21.37;39.56;100321.59;5130117;28;19985;-65
2023/10/08 00:05:57;;;;;;;;;;;;;;;21.36;39.52;100319.91;5130320;28;20009;-65
2023/10/08 00:08:27;;;;;;;;;;;;;;;21.36;39.24;100311.75;5130262;28;19924;-65
2023/10/08 00:10:57;;;;;;;;;;;;;;;21.37;39.27;100300.75;5130106;28;19931;-65
2023/10/08 00:13:25;;;;;;;;;;;;;;;21.35;39.43;100301.91;5130000;28;19970;-64
2023/10/08 00:15:56;;;;;;;;;;;;;;;21.35;39.32;100299.19;5129808;28;20349;-65
2023/10/08 00:18:25;;;;;;;;;;;;;;;21.36;39.40;100299.03;5129811;28;19928;-64
2023/10/08 00:20:58;;;;;;;;;;;;;;;21.35;39.39;100296.50;5129769;28;19923;-65
2023/10/08 00:23:28;;;;;;;;;;;;;;;21.36;39.26;100284.63;5129687;28;19930;-65
2023/10/08 00:25:56;;;;;;;;;;;;;;;21.35;39.67;100291.06;5129706;28;19924;-65
2023/10/08 00:28:28;;;;;;;;;;;;;;;21.35;39.34;100293.78;5129663;27;19924;-65
2023/10/08 00:30:57;;;;;;;;;;;;;;;21.35;39.39;100307.34;5129992;28;20241;-65
2023/10/08 00:33:25;;;;;;;;;;;;;;;21.36;39.22;100303.63;5129705;28;19976;-65
2023/10/08 00:35:53;;;;;;;;;;;;;;;21.34;39.29;100289.38;5129523;27;20315;-65
2023/10/08 00:38:22;;;;;;;;;;;;;;;21.34;39.00;100292.06;5129464;28;19992;-65
2023/10/08 00:40:55;;;;;;;;;;;;;;;21.32;38.96;100283.22;5129486;28;19923;-65
2023/10/08 00:43:31;;;;;;;;;;;;;;;21.30;38.93;100283.38;5129260;28;19924;-65
2023/10/08 00:46:00;;;;;;;;;;;;;;;21.30;38.94;100279.81;5129367;28;20372;-65
2023/10/08 00:48:34;;;;;;;;;;;;;;;21.28;39.11;100269.13;5120633;28;20288;-65
2023/10/08 00:51:16;;;;;;;;;;;;;;;21.28;38.62;100273.72;5115747;28;20002;-65
2023/10/08 00:53:45;;;;;;;;;;;;;;;21.26;38.32;100267.56;5115501;28;19924;-65
2023/10/08 00:56:19;;;;;;;;;;;;;;;21.25;38.43;100265.88;5115666;28;20292;-65
2023/10/08 00:58:49;;;;;;;;;;;;;;;21.24;38.35;100261.47;5115493;28;20396;-65
2023/10/08 01:01:20;;;;;;;;;;;;;;;21.25;38.47;100252.31;5115472;28;19931;-65
2023/10/08 01:03:49;;;;;;;;;;;;;;;21.25;38.61;100260.44;5115319;28;20315;-65
2023/10/08 01:06:19;;;;;;;;;;;;;;;21.23;38.76;100263.34;5115138;28;20396;-65
2023/10/08 01:08:52;;;;;;;;;;;;;;;21.23;38.40;100263.34;5115471;28;19924;-65
2023/10/08 01:11:31;;;;;;;;;;;;;;;21.23;38.26;100270.59;5115377;28;19946;-64
2023/10/08 01:14:00;;;;;;;;;;;;;;;21.22;38.26;100252.63;5115231;28;19924;-65
2023/10/08 01:16:29;;;;;;;;;;;;;;;21.22;38.50;100241.75;5115090;28;19923;-65
2023/10/08 01:19:00;;;;;;;;;;;;;;;21.21;38.62;100234.66;5114932;28;19989;-65
2023/10/08 01:21:37;;;;;;;;;;;;;;;21.20;38.55;100225.66;5115244;28;19923;-65
2023/10/08 01:24:07;;;;;;;;;;;;;;;21.20;38.31;100232.94;5114985;28;19924;-65
2023/10/08 01:26:38;;;;;;;;;;;;;;;21.18;38.61;100229.56;5115306;28;19931;-65
2023/10/08 01:29:11;;;;;;;;;;;;;;;21.17;38.38;100217.00;5114865;28;19931;-65
2023/10/08 01:31:40;;;;;;;;;;;;;;;21.15;38.21;100220.72;5114802;28;19934;-65
2023/10/08 01:34:08;;;;;;;;;;;;;;;21.15;38.35;100203.63;5114975;28;20423;-65
2023/10/08 01:36:36;;;;;;;;;;;;;;;21.13;38.67;100195.63;5114628;28;19924;-65
2023/10/08 01:39:06;;;;;;;;;;;;;;;21.13;38.57;100205.59;5114819;28;19969;-65
2023/10/08 01:41:40;;;;;;;;;;;;;;;21.12;38.48;100203.91;5114603;28;20364;-65
2023/10/08 01:44:08;;;;;;;;;;;;;;;21.13;38.63;100200.19;5114525;28;19927;-65
2023/10/08 01:46:40;;;;;;;;;;;;;;;21.12;38.48;100193.91;5114733;28;19927;-65
2023/10/08 01:49:14;;;;;;;;;;;;;;;21.12;38.58;100193.06;5114476;28;19935;-64
2023/10/08 01:51:46;;;;;;;;;;;;;;;21.10;38.62;100185.09;5114557;28;19924;-64
2023/10/08 01:54:17;;;;;;;;;;;;;;;21.09;38.59;100180.69;5114519;28;19977;-65
2023/10/08 01:56:48;;;;;;;;;;;;;;;21.08;38.54;100176.28;5114490;28;19972;-66
2023/10/08 01:59:18;;;;;;;;;;;;;;;21.08;38.78;100178.13;5113809;28;19931;-65
2023/10/08 02:01:46;;;;;;;;;;;;;;;21.07;38.63;100177.28;5114290;28;19962;-66
2023/10/08 02:04:17;;;;;;;;;;;;;;;21.07;38.78;100190.00;5114262;28;19924;-65
2023/10/08 02:06:46;;;;;;;;;;;;;;;21.06;39.01;100194.56;5114238;28;19927;-64
2023/10/08 02:09:15;;;;;;;;;;;;;;;21.06;38.77;100181.03;5114332;28;19931;-63
2023/10/08 02:11:45;;;;;;;;;;;;;;;21.06;38.88;100178.31;5114226;28;19923;-64
2023/10/08 02:14:15;;;;;;;;;;;;;;;21.05;39.00;100173.91;5114139;28;20324;-64
2023/10/08 02:16:44;;;;;;;;;;;;;;;21.06;38.93;100177.47;5114065;28;19970;-64
2023/10/08 02:19:12;;;;;;;;;;;;;;;21.06;39.13;100178.31;5113754;28;20402;-64
2023/10/08 02:21:46;;;;;;;;;;;;;;;21.06;39.14;100177.47;5113760;28;19957;-63
2023/10/08 02:24:14;;;;;;;;;;;;;;;21.06;39.41;100183.72;5113948;28;20296;-64
2023/10/08 02:26:43;;;;;;;;;;;;;;;21.08;39.12;100170.00;5113881;28;19924;-64
2023/10/08 02:29:11;;;;;;;;;;;;;;;21.06;39.15;100169.31;5113881;28;20214;-64
2023/10/08 02:31:41;;;;;;;;;;;;;;;21.06;39.30;100172.88;5113651;28;19928;-64
2023/10/08 02:34:12;;;;;;;;;;;;;;;21.05;39.29;100160.34;5113525;28;19950;-66
2023/10/08 02:36:40;;;;;;;;;;;;;;;21.05;39.45;100154.91;5113554;28;20026;-63
2023/10/08 02:39:21;;;;;;;;;;;;;;;21.04;39.56;100147.78;5113611;28;19924;-65
2023/10/08 02:41:50;;;;;;;;;;;;;;;21.04;39.49;100142.38;5113525;28;20359;-64
2023/10/08 02:44:18;;;;;;;;;;;;;;;21.05;39.36;100148.66;5113283;28;20384;-63
2023/10/08 02:46:49;;;;;;;;;;;;;;;21.04;39.72;100150.50;5113289;28;19928;-63
2023/10/08 02:49:20;;;;;;;;;;;;;;;21.04;39.64;100152.38;5113567;28;20019;-64
2023/10/08 02:51:50;;;;;;;;;;;;;;;21.02;39.60;100157.94;5113258;28;20373;-64
2023/10/08 02:54:18;;;;;;;;;;;;;;;21.03;39.67;100167.75;5113703;28;19930;-64
2023/10/08 02:56:51;;;;;;;;;;;;;;;21.03;39.78;100162.34;5113268;28;19935;-64
2023/10/08 02:59:21;;;;;;;;;;;;;;;21.04;39.84;100164.06;5113077;28;19997;-64
2023/10/08 03:01:55;;;;;;;;;;;;;;;21.05;39.85;100148.66;5113373;28;19928;-64
2023/10/08 03:04:24;;;;;;;;;;;;;;;21.06;40.00;100136.78;5113223;28;20428;-64
2023/10/08 03:06:53;;;;;;;;;;;;;;;21.06;39.91;100140.34;5113175;28;20300;-64
2023/10/08 03:09:23;;;;;;;;;;;;;;;21.06;40.01;100131.34;5113033;28;19924;-65
2023/10/08 03:11:54;;;;;;;;;;;;;;;21.06;39.85;100134.91;5112689;28;19924;-64
2023/10/08 03:14:22;;;;;;;;;;;;;;;21.05;40.02;100132.38;5112833;28;19924;-64
2023/10/08 03:16:53;;;;;;;;;;;;;;;21.05;40.26;100144.06;5112868;28;19924;-64
2023/10/08 03:19:22;;;;;;;;;;;;;;;21.05;40.26;100138.66;5112851;28;19932;-64
2023/10/08 03:21:55;;;;;;;;;;;;;;;21.04;40.14;100146.94;5112930;28;19923;-64
2023/10/08 03:24:39;;;;;;;;;;;;;;;21.03;39.87;100137.09;5112715;28;20299;-64
2023/10/08 03:27:12;;;;;;;;;;;;;;;21.03;39.85;100140.66;5112835;28;19924;-64
2023/10/08 03:29:42;;;;;;;;;;;;;;;21.03;39.85;100135.22;5112754;28;20434;-64
2023/10/08 03:32:16;;;;;;;;;;;;;;;21.03;39.89;100131.66;5112746;28;19927;-63
2023/10/08 03:34:46;;;;;;;;;;;;;;;21.03;40.06;100123.53;5112675;28;19927;-64
2023/10/08 03:37:19;;;;;;;;;;;;;;;21.03;40.20;100118.94;5112597;28;19924;-64
2023/10/08 03:40:00;;;;;;;;;;;;;;;21.03;40.12;100109.97;5112730;28;19976;-63
2023/10/08 03:42:34;;;;;;;;;;;;;;;21.04;40.03;100108.97;5112604;28;19924;-65
2023/10/08 03:45:10;;;;;;;;;;;;;;;21.04;40.09;100103.56;5112478;28;19931;-63
2023/10/08 03:47:46;;;;;;;;;;;;;;;21.04;40.29;100104.41;5112694;28;19931;-65
2023/10/08 03:50:17;;;;;;;;;;;;;;;21.04;40.34;100098.97;5112821;28;20304;-65
2023/10/08 03:52:47;;;;;;;;;;;;;;;21.04;40.42;100082.72;5112580;28;19931;-65
2023/10/08 03:55:21;;;;;;;;;;;;;;;21.04;40.01;100081.88;5112464;28;20390;-64
2023/10/08 03:57:56;;;;;;;;;;;;;;;21.06;40.13;100091.53;5112462;28;19967;-65
2023/10/08 04:00:31;;;;;;;;;;;;;;;21.05;40.26;100095.25;5112431;28;20373;-65
2023/10/08 04:03:07;;;;;;;;;;;;;;;21.05;40.07;100100.69;5112572;28;20019;-65
2023/10/08 04:05:44;;;;;;;;;;;;;;;21.06;40.26;100096.09;5112465;28;19967;-65
2023/10/08 04:08:24;;;;;;;;;;;;;;;21.07;40.36;100100.50;5112295;28;19981;-65
2023/10/08 04:11:27;;;;;;;;;;;;;;;21.06;40.25;100080.69;5112576;28;19927;-64
2023/10/08 04:13:57;;;;;;;;;;;;;;;21.08;40.56;100086.78;5112357;28;20018;-63
2023/10/08 04:16:27;;;;;;;;;;;;;;;21.09;40.24;100080.34;5112279;28;20265;-63
2023/10/08 04:19:01;;;;;;;;;;;;;;;21.10;40.53;100082.03;5112427;28;20071;-64
2023/10/08 04:21:29;;;;;;;;;;;;;;;21.09;40.65;100085.78;5112447;28;20319;-64
2023/10/08 04:23:57;;;;;;;;;;;;;;;21.11;40.50;100086.44;5114745;28;19924;-63
2023/10/08 04:26:26;;;;;;;;;;;;;;;21.11;40.72;100078.31;5116162;28;19963;-64
2023/10/08 04:28:57;;;;;;;;;;;;;;;21.12;40.79;100073.75;5115971;28;19924;-64
2023/10/08 04:31:28;;;;;;;;;;;;;;;21.12;40.85;100079.16;5115961;28;20280;-64
2023/10/08 04:34:00;;;;;;;;;;;;;;;21.12;40.83;100080.00;5116098;28;19931;-63
2023/10/08 04:36:28;;;;;;;;;;;;;;;21.12;40.93;100079.16;5115909;28;19931;-63
2023/10/08 04:39:03;;;;;;;;;;;;;;;21.11;40.74;100082.88;5115787;28;19924;-64
2023/10/08 04:41:31;;;;;;;;;;;;;;;21.11;41.11;100081.03;5115730;28;19928;-63
2023/10/08 04:44:08;;;;;;;;;;;;;;;21.10;41.01;100076.63;5115847;28;19923;-63
2023/10/08 04:46:47;;;;;;;;;;;;;;;21.11;40.79;100072.88;5115589;28;19976;-65
2023/10/08 04:49:27;;;;;;;;;;;;;;;21.12;40.85;100080.00;5115735;28;19923;-65
2023/10/08 04:51:58;;;;;;;;;;;;;;;21.12;40.82;100079.16;5115506;28;20065;-63
2023/10/08 04:54:29;;;;;;;;;;;;;;;21.12;41.03;100084.59;5115687;27;19924;-64
2023/10/08 04:56:59;;;;;;;;;;;;;;;21.12;41.15;100077.28;5115631;28;19985;-65
2023/10/08 04:59:32;;;;;;;;;;;;;;;21.11;40.93;100078.31;5115340;28;20398;-64
2023/10/08 05:02:19;;;;;;;;;;;;;;;21.11;41.37;100078.31;5115280;28;19970;-65
2023/10/08 05:05:21;;;;;;;;;;;;;;;21.10;41.19;100079.31;5115438;28;19977;-64
2023/10/08 05:08:16;;;;;;;;;;;;;;;21.10;41.24;100084.75;5115558;28;19973;-65
2023/10/08 05:13:45;;;;;;;;;;;;;;;21.09;41.08;100084.94;5115300;28;19924;-65
2023/10/08 05:16:35;;;;;;;;;;;;;;;21.06;41.14;100085.25;5115293;28;19923;-63
2023/10/08 05:19:37;;;;;;;;;;;;;;;21.02;41.17;100100.13;5115046;28;19924;-63
2023/10/08 05:22:17;;;;;;;;;;;;;;;21.01;41.06;100099.28;5115200;28;19930;-64
2023/10/08 05:25:07;;;;;;;;;;;;;;;21.00;41.21;100097.59;5115034;28;19934;-64
2023/10/08 05:27:38;;;;;;;;;;;;;;;20.98;41.26;100099.63;5114792;28;19957;-65
2023/10/08 05:30:15;;;;;;;;;;;;;;;20.96;41.10;100095.38;5115058;28;19923;-65
2023/10/08 05:38:22;;;;;;;;;;;;;;;20.97;41.45;100118.78;5114586;28;19924;-65
2023/10/08 05:41:05;;;;;;;;;;;;;;;20.96;41.47;100130.63;5114729;28;19949;-65
2023/10/08 05:46:47;;;;;;;;;;;;;;;20.95;41.12;100121.66;5051439;28;19929;-64
2023/10/08 05:49:38;;;;;;;;;;;;;;;20.95;41.03;100120.81;5051506;28;19925;-65
2023/10/08 05:52:25;;;;;;;;;;;;;;;20.94;41.20;100125.38;5095719;28;19966;-64
2023/10/08 05:57:46;;;;;;;;;;;;;;;20.96;41.15;100122.50;5114310;28;19946;-65
2023/10/08 06:03:11;;;;;;;;;;;;;;;20.97;41.41;100129.63;5114171;28;19930;-65
2023/10/08 06:05:47;;;;;;;;;;;;;;;20.98;41.37;100139.44;5114473;28;19931;-65
2023/10/08 06:08:21;;;;;;;;;;;;;;;20.97;41.31;100141.31;5114203;28;19923;-64
2023/10/08 06:11:00;;;;;;;;;;;;;;;20.98;41.56;100150.28;5114011;28;19968;-66
2023/10/08 06:13:44;;;;;;;;;;;;;;;20.98;41.68;100136.75;5113915;28;19924;-65
2023/10/08 06:16:30;;;;;;;;;;;;;;;20.98;41.67;100153.00;5114210;28;19983;-65
2023/10/08 06:18:58;;;;;;;;;;;;;;;20.98;41.44;100142.16;5113921;28;19924;-65
2023/10/08 06:21:26;;;;;;;;;;;;;;;20.98;41.81;100142.16;5113785;28;19923;-65
2023/10/08 06:23:56;;;;;;;;;;;;;;;20.99;41.87;100154.69;5113766;28;19924;-65
2023/10/08 06:26:27;;;;;;;;;;;;;;;20.99;41.87;100166.41;5113609;28;19924;-65
2023/10/08 06:28:58;;;;;;;;;;;;;;;20.99;41.67;100166.41;5113869;28;19928;-64
2023/10/08 06:31:27;;;;;;;;;;;;;;;20.99;41.70;100155.56;5113747;28;19924;-64
2023/10/08 06:33:57;;;;;;;;;;;;;;;21.00;42.09;100168.09;5113660;28;19963;-64
2023/10/08 06:36:27;;;;;;;;;;;;;;;21.00;42.09;100165.38;5113604;28;20018;-63
2023/10/08 06:38:54;;;;;;;;;;;;;;;21.00;41.95;100159.97;5113312;28;19959;-63
2023/10/08 06:41:29;;;;;;;;;;;;;;;21.01;42.05;100166.22;5113607;28;19924;-62
2023/10/08 06:44:16;;;;;;;;;;;;;;;21.01;42.20;100164.38;5113432;28;19924;-62
2023/10/08 06:46:45;;;;;;;;;;;;;;;21.02;42.33;100166.06;5112869;28;19947;-62
2023/10/08 06:49:15;;;;;;;;;;;;;;;21.03;42.22;100166.91;5113463;28;20010;-62
2023/10/08 06:51:44;;;;;;;;;;;;;;;21.03;42.45;100156.91;5113406;28;20040;-62
2023/10/08 06:54:13;;;;;;;;;;;;;;;21.03;42.24;100173.19;5113466;28;19927;-63
2023/10/08 06:56:46;;;;;;;;;;;;;;;21.03;42.31;100159.63;5113176;28;19927;-65
2023/10/08 06:59:14;;;;;;;;;;;;;;;21.04;42.39;100168.66;5113120;28;19981;-65
2023/10/08 07:01:45;;;;;;;;;;;;;;;21.03;42.50;100143.34;5112781;28;19924;-65
2023/10/08 07:04:14;;;;;;;;;;;;;;;21.03;42.62;100137.94;5113240;28;19928;-64
2023/10/08 07:06:45;;;;;;;;;;;;;;;21.03;42.53;100146.06;5113186;28;19928;-64
2023/10/08 07:09:22;;;;;;;;;;;;;;;21.04;42.61;100164.06;5112792;28;20629;-63
2023/10/08 07:11:54;;;;;;;;;;;;;;;21.05;42.33;100162.19;5112955;28;20277;-63
2023/10/08 07:14:26;;;;;;;;;;;;;;;21.07;42.79;100165.59;5112872;28;19924;-64
2023/10/08 07:16:58;;;;;;;;;;;;;;;21.07;42.79;100149.31;5112993;28;19930;-65
2023/10/08 07:19:32;;;;;;;;;;;;;;;21.07;42.45;100147.47;5112903;28;20072;-63
2023/10/08 07:22:06;;;;;;;;;;;;;;;21.08;42.50;100159.16;5112720;28;20004;-63
2023/10/08 07:24:36;;;;;;;;;;;;;;;21.08;42.57;100143.72;5103072;28;19931;-63
2023/10/08 07:27:09;;;;;;;;;;;;;;;21.08;42.92;100146.44;5092213;28;20390;-63
2023/10/08 07:29:37;;;;;;;;;;;;;;;21.09;42.98;100156.28;5092338;28;19947;-65
2023/10/08 07:32:11;;;;;;;;;;;;;;;21.10;42.77;100152.56;5092441;28;19924;-65
2023/10/08 07:34:39;;;;;;;;;;;;;;;21.11;42.74;100164.25;5092188;28;20449;-63
2023/10/08 07:37:07;;;;;;;;;;;;;;;21.11;43.02;100154.25;5106586;28;19971;-65
2023/10/08 07:39:35;;;;;;;;;;;;;;;21.11;42.93;100154.25;5112485;28;19930;-63
2023/10/08 07:42:05;;;;;;;;;;;;;;;21.11;43.08;100159.66;5112627;28;19923;-64
2023/10/08 07:44:35;;;;;;;;;;;;;;;21.13;43.06;100164.94;5112638;28;19978;-65
2023/10/08 07:47:09;;;;;;;;;;;;;;;21.13;43.19;100154.97;5101241;28;20506;-66
2023/10/08 07:49:40;;;;;;;;;;;;;;;21.15;43.20;100155.63;5112459;28;19976;-65
2023/10/08 07:52:08;;;;;;;;;;;;;;;21.16;43.47;100151.06;5112193;28;20435;-65
2023/10/08 07:54:39;;;;;;;;;;;;;;;21.17;43.73;100150.06;5112814;28;20420;-67
2023/10/08 07:57:10;;;;;;;;;;;;;;;21.19;43.62;100149.88;5112565;28;19924;-64
2023/10/08 07:59:41;;;;;;;;;;;;;;;21.21;44.13;100148.69;5116086;28;19923;-64
2023/10/08 08:02:11;;;;;;;;;;;;;;;21.22;43.93;100150.38;5116430;28;19924;-63
2023/10/08 08:04:42;;;;;;;;;;;;;;;21.24;44.32;100142.13;5116239;28;19927;-65
2023/10/08 08:07:15;;;;;;;;;;;;;;;21.25;44.56;100149.25;5116313;28;19967;-64
2023/10/08 08:09:50;;;;;;;;;;;;;;;21.25;44.45;100152.81;5116560;28;20878;-63
2023/10/08 08:12:21;;;;;;;;;;;;;;;21.26;44.75;100150.94;5116303;28;19985;-64
2023/10/08 08:14:50;;;;;;;;;;;;;;;21.28;44.66;100159.78;5116268;28;20022;-64
2023/10/08 08:17:18;;;;;;;;;;;;;;;21.29;44.90;100165.03;5116322;28;19924;-64
2023/10/08 08:19:49;;;;;;;;;;;;;;;21.31;44.78;100167.59;5116162;28;19928;-64
2023/10/08 08:22:21;;;;;;;;;;;;;;;21.32;44.70;100166.56;5115967;28;19924;-63
2023/10/08 08:24:53;;;;;;;;;;;;;;;21.34;44.98;100170.00;5116227;27;20296;-65
2023/10/08 08:27:25;;;;;;;;;;;;;;;21.35;45.39;100161.69;5115806;28;19977;-65
2023/10/08 08:29:56;;;;;;;;;;;;;;;21.39;45.59;100170.34;5116231;28;19981;-62
2023/10/08 08:32:25;;;;;;;;;;;;;;;21.43;45.41;100188.00;5115962;28;19924;-64
2023/10/08 08:34:58;;;;;;;;;;;;;;;21.46;44.96;100178.69;5116151;28;19977;-67
2023/10/08 08:37:29;;;;;;;;;;;;;;;21.47;45.37;100181.22;5115629;28;20392;-65
2023/10/08 08:39:58;;;;;;;;;;;;;;;21.51;45.40;100185.28;5115768;28;19930;-66
2023/10/08 08:42:27;;;;;;;;;;;;;;;21.53;45.03;100169.72;5115838;28;19930;-67
2023/10/08 08:44:57;;;;;;;;;;;;;;;21.56;45.16;100174.81;5115761;28;19924;-64
2023/10/08 08:47:28;;;;;;;;;;;;;;;21.59;45.14;100187.19;5109990;28;19968;-64
2023/10/08 08:50:07;;;;;;;;;;;;;;;21.60;45.61;100172.59;5100572;28;20258;-63
2023/10/08 08:52:36;;;;;;;;;;;;;;;21.64;45.87;100183.00;5095303;28;19924;-64
2023/10/08 08:55:09;;;;;;;;;;;;;;;21.66;46.02;100194.53;5095214;28;19924;-63
2023/10/08 08:57:39;;;;;;;;;;;;;;;21.68;46.46;100211.50;5094943;28;19935;-61
2023/10/08 09:00:11;;;;;;;;;;;;;;;21.71;47.32;100222.03;5094936;28;19930;-61
2023/10/08 09:02:38;;;;;;;;;;;;;;;21.75;47.61;100208.13;5094743;28;19927;-63
2023/10/08 09:05:23;;;;;;;;;;;;;;;21.79;47.40;100214.91;5095088;28;19928;-63
2023/10/08 09:07:53;;;;;;;;;;;;;;;21.83;47.80;100200.84;5095179;28;20023;-62
2023/10/08 09:10:27;;;;;;;;;;;;;;;21.88;47.69;100222.06;5094196;28;19924;-63
2023/10/08 09:12:57;;;;;;;;;;;;;;;21.91;47.67;100221.75;5094752;28;19924;-67
2023/10/08 09:15:26;;;;;;;;;;;;;;;21.92;47.62;100215.31;5094746;28;20365;-67
2023/10/08 09:17:55;;;;;;;;;;;;;;;21.94;47.51;100221.41;5095017;28;20013;-69
2023/10/08 09:20:26;;;;;;;;;;;;;;;21.96;47.45;100235.66;5099025;28;19985;-67
2023/10/08 09:23:07;;;;;;;;;;;;;;;21.97;47.57;100226.50;5115076;28;19930;-65
2023/10/08 09:25:36;;;;;;;;;;;;;;;21.98;47.50;100255.34;5114879;28;20292;-63
2023/10/08 09:28:07;;;;;;;;;;;;;;;21.99;47.57;100248.91;5114828;28;19971;-63
2023/10/08 09:30:37;;;;;;;;;;;;;;;22.00;47.42;100251.47;5115061;28;19931;-64
2023/10/08 09:33:06;;;;;;;;;;;;;;;22.01;47.58;100255.03;5114889;28;19924;-63
2023/10/08 09:35:37;;;;;;;;;;;;;;;22.03;47.24;100252.16;5114809;28;19924;-63
2023/10/08 09:38:08;;;;;;;;;;;;;;;22.02;47.29;100259.44;5114919;28;19973;-62
2023/10/08 09:40:37;;;;;;;;;;;;;;;22.03;47.03;100274.72;5114523;28;19930;-63
2023/10/08 09:43:05;;;;;;;;;;;;;;;22.03;47.33;100299.16;5114364;28;20014;-63
2023/10/08 09:45:37;;;;;;;;;;;;;;;22.03;47.08;100277.44;5114635;28;19982;-63
2023/10/08 09:48:08;;;;;;;;;;;;;;;22.04;47.31;100278.28;5114295;28;20433;-62
2023/10/08 09:50:40;;;;;;;;;;;;;;;22.05;47.11;100288.13;5113268;28;19924;-62
2023/10/08 09:53:15;;;;;;;;;;;;;;;22.05;47.34;100289.00;5114113;28;19931;-62
2023/10/08 09:55:45;;;;;;;;;;;;;;;22.06;47.27;100298.84;5114137;28;20376;-62
2023/10/08 09:58:14;;;;;;;;;;;;;;;22.07;47.14;100303.28;5114116;27;20407;-63
2023/10/08 10:00:44;;;;;;;;;;;;;;;22.08;47.08;100315.84;5113943;28;19924;-63
2023/10/08 10:03:13;;;;;;;;;;;;;;;22.09;46.99;100316.69;5113952;28;19924;-63
2023/10/08 10:05:44;;;;;;;;;;;;;;;22.09;47.11;100322.97;5113887;28;20285;-63
2023/10/08 10:08:12;;;;;;;;;;;;;;;22.10;47.16;100330.13;5114129;28;19992;-63
2023/10/08 10:10:43;;;;;;;;;;;;;;;22.10;47.20;100323.81;5114002;28;19928;-63
2023/10/08 10:13:11;;;;;;;;;;;;;;;22.10;47.19;100351.88;5113930;28;19923;-63
2023/10/08 10:15:40;;;;;;;;;;;;;;;22.10;46.84;100351.88;5113872;28;19930;-63
2023/10/08 10:18:14;;;;;;;;;;;;;;;22.10;46.81;100346.44;5113841;28;20376;-63
2023/10/08 10:20:46;;;;;;;;;;;;;;;22.12;46.76;100338.13;5113161;28;19923;-63
2023/10/08 10:23:33;;;;;;;;;;;;;;;22.12;46.61;100335.41;5113833;28;19924;-63
2023/10/08 10:26:02;;;;;;;;;;;;;;;22.11;46.57;100345.41;5113814;28;19955;-63
2023/10/08 10:28:33;;;;;;;;;;;;;;;22.12;46.62;100354.41;5113630;28;19924;-63
2023/10/08 10:31:03;;;;;;;;;;;;;;;22.12;46.49;100355.25;5113471;28;19924;-63
2023/10/08 10:33:32;;;;;;;;;;;;;;;22.12;46.56;100355.25;5113550;28;19931;-63
2023/10/08 10:36:04;;;;;;;;;;;;;;;22.13;46.26;100350.69;5113338;28;19930;-63
2023/10/08 10:38:34;;;;;;;;;;;;;;;22.13;46.55;100324.38;5113414;28;19924;-61
2023/10/08 10:41:08;;;;;;;;;;;;;;;22.19;46.32;100344.56;5113636;28;20345;-62
2023/10/08 10:43:40;;;;;;;;;;;;;;;22.17;46.53;100352.88;5113507;28;19924;-63
2023/10/08 10:49:04;;;;;;;;;;;;;;;22.18;46.65;100360.00;5113409;28;19971;-63
2023/10/08 10:51:33;;;;;;;;;;;;;;;22.18;46.33;100367.31;5113096;28;19946;-63
2023/10/08 10:54:07;;;;;;;;;;;;;;;22.19;46.35;100367.16;5113084;28;20376;-63
2023/10/08 10:56:42;;;;;;;;;;;;;;;22.19;45.97;100366.28;5113393;28;19992;-63
2023/10/08 10:59:18;;;;;;;;;;;;;;;22.19;46.11;100391.59;5113123;28;19973;-63
2023/10/08 11:01:49;;;;;;;;;;;;;;;22.19;46.16;100396.19;5112939;28;20014;-64
2023/10/08 11:04:19;;;;;;;;;;;;;;;22.19;45.83;100388.03;5112917;28;19945;-62
2023/10/08 11:06:54;;;;;;;;;;;;;;;22.18;45.63;100384.47;5112842;28;20380;-63
2023/10/08 11:09:35;;;;;;;;;;;;;;;22.19;45.87;100393.47;5112868;28;19924;-64
2023/10/08 11:12:10;;;;;;;;;;;;;;;22.18;45.69;100392.63;5112918;28;19977;-63
2023/10/08 11:14:41;;;;;;;;;;;;;;;22.19;45.47;100394.31;5112743;28;20257;-63
2023/10/08 11:17:14;;;;;;;;;;;;;;;22.19;45.53;100399.75;5113022;28;19984;-62
2023/10/08 11:19:45;;;;;;;;;;;;;;;22.19;45.41;100405.19;5112662;28;20325;-62
2023/10/08 11:22:18;;;;;;;;;;;;;;;22.17;45.38;100396.34;5112469;28;19941;-63
2023/10/08 11:24:48;;;;;;;;;;;;;;;22.17;45.14;100412.66;5112529;28;19971;-62
2023/10/08 11:27:17;;;;;;;;;;;;;;;22.16;45.06;100416.38;5112448;28;20029;-62
2023/10/08 11:29:48;;;;;;;;;;;;;;;22.15;44.87;100413.84;5112685;28;19931;-62
2023/10/08 11:32:18;;;;;;;;;;;;;;;22.14;44.88;100418.41;5112470;28;20022;-62
2023/10/08 11:34:49;;;;;;;;;;;;;;;22.12;44.54;100420.44;5112495;28;20030;-62
2023/10/08 11:37:28;;;;;;;;;;;;;;;22.10;44.05;100425.22;5112195;28;19931;-62
2023/10/08 11:39:58;;;;;;;;;;;;;;;22.08;44.26;100416.34;5112358;28;19931;-62
2023/10/08 11:42:43;;;;;;;;;;;;;;;22.05;44.02;100413.94;5112438;28;19930;-62
2023/10/08 11:45:25;;;;;;;;;;;;;;;22.05;43.77;100430.22;5112602;28;19977;-64
2023/10/08 11:47:56;;;;;;;;;;;;;;;22.02;43.65;100446.84;5112609;28;20292;-63
2023/10/08 11:50:30;;;;;;;;;;;;;;;22.00;43.27;100449.75;5112494;28;19924;-63
2023/10/08 11:53:02;;;;;;;;;;;;;;;21.97;43.39;100439.16;5112432;28;19930;-63
2023/10/08 11:55:35;;;;;;;;;;;;;;;21.96;43.30;100452.91;5112588;28;19924;-63
2023/10/08 11:58:09;;;;;;;;;;;;;;;21.93;43.28;100461.41;5112299;28;19938;-63
2023/10/08 12:00:43;;;;;;;;;;;;;;;21.92;43.26;100476.00;5112269;28;19932;-63
2023/10/08 12:03:16;;;;;;;;;;;;;;;21.90;42.99;100467.13;5112092;28;19928;-63
2023/10/08 12:05:47;;;;;;;;;;;;;;;21.86;43.36;100469.31;5112579;28;20292;-64
2023/10/08 12:08:17;;;;;;;;;;;;;;;21.87;43.46;100483.75;5112294;28;19924;-62
2023/10/08 12:10:46;;;;;;;;;;;;;;;21.87;43.26;100486.47;5112212;28;19924;-62
2023/10/08 12:13:16;;;;;;;;;;;;;;;21.85;43.43;100489.34;5112179;28;19964;-62
2023/10/08 12:15:47;;;;;;;;;;;;;;;21.83;43.54;100496.81;5112066;28;19924;-62
2023/10/08 12:18:24;;;;;;;;;;;;;;;21.82;43.23;100499.69;5112235;28;19924;-62
2023/10/08 12:20:53;;;;;;;;;;;;;;;21.81;43.36;100508.81;5112215;28;20288;-64
2023/10/08 12:23:25;;;;;;;;;;;;;;;21.80;43.37;100520.69;5112340;28;19931;-62
2023/10/08 12:25:55;;;;;;;;;;;;;;;21.80;43.57;100520.69;5112611;28;20425;-62
2023/10/08 12:28:24;;;;;;;;;;;;;;;21.80;43.74;100523.41;5112371;28;20073;-62
2023/10/08 12:30:53;;;;;;;;;;;;;;;21.78;43.72;100520.84;5112312;28;19931;-63
2023/10/08 12:33:23;;;;;;;;;;;;;;;21.78;43.59;100514.56;5112163;28;19923;-64
2023/10/08 12:35:55;;;;;;;;;;;;;;;21.78;43.75;100528.13;5111887;28;19924;-64
2023/10/08 12:38:27;;;;;;;;;;;;;;;21.76;43.74;100520.16;5110600;28;19924;-64
2023/10/08 12:40:56;;;;;;;;;;;;;;;21.77;43.71;100523.72;5112146;28;19924;-63
2023/10/08 12:43:27;;;;;;;;;;;;;;;21.76;44.11;100524.75;5112101;28;19931;-63
2023/10/08 12:45:56;;;;;;;;;;;;;;;21.76;43.77;100525.59;5115725;28;19924;-64
2023/10/08 12:48:26;;;;;;;;;;;;;;;21.76;43.77;100522.03;5115637;28;19949;-63
2023/10/08 12:50:56;;;;;;;;;;;;;;;21.75;43.89;100539.31;5115538;28;20006;-63
2023/10/08 12:53:34;;;;;;;;;;;;;;;21.75;43.64;100536.63;5115747;28;19924;-63
2023/10/08 12:56:05;;;;;;;;;;;;;;;21.74;43.78;100545.78;5115647;28;19924;-63
2023/10/08 12:58:41;;;;;;;;;;;;;;;21.71;43.70;100542.38;5115484;28;19924;-63
2023/10/08 13:01:09;;;;;;;;;;;;;;;21.71;43.27;100538.75;5115160;28;19923;-63
2023/10/08 13:03:41;;;;;;;;;;;;;;;21.69;43.14;100536.22;5115266;28;19923;-63
2023/10/08 13:06:14;;;;;;;;;;;;;;;21.68;42.94;100534.50;5114962;28;19924;-63
2023/10/08 13:08:45;;;;;;;;;;;;;;;21.65;42.61;100548.41;5115268;28;19924;-63
2023/10/08 13:11:14;;;;;;;;;;;;;;;21.63;42.18;100545.00;5114931;28;20366;-64
2023/10/08 13:13:44;;;;;;;;;;;;;;;21.62;42.21;100537.88;5115082;28;20385;-63
2023/10/08 13:16:13;;;;;;;;;;;;;;;21.61;42.58;100547.00;5115311;28;19924;-63
2023/10/08 13:18:43;;;;;;;;;;;;;;;21.60;42.71;100529.00;5115191;28;20378;-63
2023/10/08 13:21:11;;;;;;;;;;;;;;;21.59;42.18;100556.31;5114954;28;19930;-61